Observation data for Graham on 05/24/2019      Previous  Date  Next       Current Mesonet Observations  Soil Data  Daily Summary Page  Observations in Plain Language
KGHS 240500Z 13010KT 24/18 A299 RMK A01 T02380181  RH  074%=      5-min Rain = 0
KGHS 240505Z 13010KT 24/18 A299 RMK A01 T02380181  RH  074%=      5-min Rain = 0
KGHS 240510Z 13009KT 24/18 A299 RMK A01 T02370181  RH  075%=      5-min Rain = 0
KGHS 240515Z 13010KT 24/18 A299 RMK A01 T02370180  RH  075%=      5-min Rain = 0
KGHS 240520Z 13009KT 24/18 A299 RMK A01 T02370180  RH  074%=      5-min Rain = 0
KGHS 240525Z 13008KT 24/18 A299 RMK A01 T02370180  RH  075%=      5-min Rain = 0
KGHS 240530Z 13008KT 24/18 A299 RMK A01 T02360180  RH  075%=      5-min Rain = 0
KGHS 240535Z 12009KT 24/18 A299 RMK A01 T02360180  RH  075%=      5-min Rain = 0
KGHS 240540Z 13009KT 24/18 A299 RMK A01 T02360180  RH  075%=      5-min Rain = 0
KGHS 240545Z 13008KT 24/18 A299 RMK A01 T02350180  RH  075%=      5-min Rain = 0
KGHS 240550Z 14007KT 24/18 A299 RMK A01 T02350181  RH  075%=      5-min Rain = 0
KGHS 240555Z 13006G11KT 24/18 A299 RMK A01 T02350181  RH  076%=      5-min Rain = 0
KGHS 240600Z 13008G13KT 24/18 A299 RMK A01 T02350180  RH  075%=      5-min Rain = 0
KGHS 240605Z 12007G12KT 24/18 A2991 RMK A01 T02350180  RH  075%=      5-min Rain = 0
KGHS 240610Z 12005KT 24/18 A2991 RMK A01 T02350180  RH  075%=      5-min Rain = 0
KGHS 240615Z 12005KT 24/18 A2991 RMK A01 T02350180  RH  075%=      5-min Rain = 0
KGHS 240620Z 10006KT 23/18 A2991 RMK A01 T02340180  RH  075%=      5-min Rain = 0
KGHS 240625Z 10005KT 23/18 A2992 RMK A01 T02340180  RH  075%=      5-min Rain = 0
KGHS 240630Z 13009G17KT 23/18 A2992 RMK A01 T02340179  RH  075%=      5-min Rain = 0
KGHS 240635Z 16007KT 24/18 A2992 RMK A01 T02350179  RH  075%=      5-min Rain = 0
KGHS 240640Z 10006KT 24/18 A2992 RMK A01 T02350179  RH  075%=      5-min Rain = 0
KGHS 240645Z 11004KT 23/18 A2992 RMK A01 T02340180  RH  075%=      5-min Rain = 0
KGHS 240650Z 07003KT 23/18 A2993 RMK A01 T02340179  RH  075%=      5-min Rain = 0
KGHS 240655Z 00004KT 23/18 A2993 RMK A01 T02330181  RH  076%=      5-min Rain = 0
KGHS 240700Z 00005KT 23/18 A2993 RMK A01 T02320181  RH  077%=      5-min Rain = 0
KGHS 240705Z 01013G22KT 22/16 A2993 RMK A01 T02230155  RH  069%=      5-min Rain = 0
KGHS 240710Z 01018KT 20/13 A2993 RMK A01 T01980133  RH  069%=      5-min Rain = 0
KGHS 240715Z 02014KT 20/14 A2993 RMK A01 T01950137  RH  072%=      5-min Rain = 0
KGHS 240720Z 03012KT 20/14 A2993 RMK A01 T01960139  RH  072%=      5-min Rain = 0
KGHS 240725Z 02010KT 20/14 A2993 RMK A01 T01970141  RH  073%=      5-min Rain = 0
KGHS 240730Z 02010KT 20/14 A2993 RMK A01 T01980142  RH  073%=      5-min Rain = 0
KGHS 240735Z 01012KT 20/14 A2993 RMK A01 T01980143  RH  074%=      5-min Rain = 0
KGHS 240740Z 01011KT 20/14 A2993 RMK A01 T01980142  RH  073%=      5-min Rain = 0
KGHS 240745Z 02013KT 19/14 A2993 RMK A01 T01930141  RH  075%=      5-min Rain = 0
KGHS 240750Z 02013KT 19/14 A2993 RMK A01 T01870143  RH  079%=      5-min Rain = 0
KGHS 240755Z 02011KT 18/14 A2993 RMK A01 T01830144  RH  082%=      5-min Rain = 0
KGHS 240800Z 01013KT 18/15 A2994 RMK A01 T01790145  RH  084%=      5-min Rain = 0.01
KGHS 240805Z 36014KT 18/15 A2994 RMK A01 T01760146  RH  087%=      5-min Rain = 0
KGHS 240810Z 36013G19KT 17/15 A2994 RMK A01 T01730148  RH  089%=      5-min Rain = 0
KGHS 240815Z 00018KT 17/15 A2994 RMK A01 T01720147  RH  089%=      5-min Rain = 0.01
KGHS 240820Z 01015KT 17/15 A2994 RMK A01 T01690146  RH  090%=      5-min Rain = 0.01
KGHS 240825Z 01015KT 17/15 A2994 RMK A01 T01680145  RH  090%=      5-min Rain = 0
KGHS 240830Z 00013KT 17/15 A2994 RMK A01 T01670146  RH  092%=      5-min Rain = 0.02
KGHS 240835Z 01014KT 17/15 A2994 RMK A01 T01650146  RH  092%=      5-min Rain = 0
KGHS 240840Z 02014KT 17/15 A2994 RMK A01 T01650146  RH  093%=      5-min Rain = 0
KGHS 240845Z 01015KT 16/15 A2994 RMK A01 T01640145  RH  092%=      5-min Rain = 0.01
KGHS 240850Z 02013KT 16/14 A2994 RMK A01 T01640144  RH  092%=      5-min Rain = 0.01
KGHS 240855Z 02014KT 16/14 A2993 RMK A01 T01630144  RH  092%=      5-min Rain = 0.01
KGHS 240900Z 02013KT 16/14 A2993 RMK A01 T01630143  RH  092%=      5-min Rain = 0
KGHS 240905Z 03012KT 16/14 A2993 RMK A01 T01630144  RH  092%=      5-min Rain = 0
KGHS 240910Z 03012KT 16/14 A2993 RMK A01 T01630144  RH  092%=      5-min Rain = 0.01
KGHS 240915Z 03010KT 16/14 A2993 RMK A01 T01630144  RH  093%=      5-min Rain = 0
KGHS 240920Z 04009KT 16/15 A2993 RMK A01 T01640145  RH  092%=      5-min Rain = 0
KGHS 240925Z 04011KT 16/14 A2993 RMK A01 T01640144  RH  092%=      5-min Rain = 0
KGHS 240930Z 03009KT 16/14 A2993 RMK A01 T01640144  RH  091%=      5-min Rain = 0
KGHS 240935Z 03011KT 17/14 A2993 RMK A01 T01660142  RH  090%=      5-min Rain = 0
KGHS 240940Z 05010KT 17/14 A2993 RMK A01 T01670143  RH  090%=      5-min Rain = 0
KGHS 240945Z 05009KT 17/14 A2993 RMK A01 T01670144  RH  090%=      5-min Rain = 0
KGHS 240950Z 05007KT 17/15 A2993 RMK A01 T01680145  RH  090%=      5-min Rain = 0
KGHS 240955Z 09003KT 17/15 A2993 RMK A01 T01680145  RH  090%=      5-min Rain = 0
KGHS 241000Z 08004KT 17/15 A2994 RMK A01 T01680145  RH  090%=      5-min Rain = 0
KGHS 241005Z 06004KT 17/15 A2994 RMK A01 T01690145  RH  090%=      5-min Rain = 0
KGHS 241010Z 06004KT 17/15 A2994 RMK A01 T01690146  RH  090%=      5-min Rain = 0
KGHS 241015Z 07005KT 17/15 A2994 RMK A01 T01700147  RH  090%=      5-min Rain = 0
KGHS 241020Z 07006KT 17/15 A2994 RMK A01 T01710148  RH  090%=      5-min Rain = 0
KGHS 241025Z 07006KT 17/15 A2994 RMK A01 T01710148  RH  090%=      5-min Rain = 0
KGHS 241030Z 06004KT 17/15 A2994 RMK A01 T01710148  RH  090%=      5-min Rain = 0
KGHS 241035Z 05002KT 17/15 A2994 RMK A01 T01710148  RH  090%=      5-min Rain = 0
KGHS 241040Z 02004KT 17/15 A2994 RMK A01 T01710149  RH  090%=      5-min Rain = 0
KGHS 241045Z 02006KT 17/15 A2994 RMK A01 T01710147  RH  090%=      5-min Rain = 0
KGHS 241050Z 34004KT 17/15 A2994 RMK A01 T01710150  RH  091%=      5-min Rain = 0
KGHS 241055Z 36005KT 17/15 A2995 RMK A01 T01700151  RH  092%=      5-min Rain = 0
KGHS 241100Z 01006KT 17/15 A2995 RMK A01 T01710150  RH  092%=      5-min Rain = 0
KGHS 241105Z 01008KT 17/15 A2994 RMK A01 T01710150  RH  091%=      5-min Rain = 0
KGHS 241110Z 02008KT 17/15 A2994 RMK A01 T01720151  RH  091%=      5-min Rain = 0
KGHS 241115Z 04006KT 17/15 A2994 RMK A01 T01720151  RH  092%=      5-min Rain = 0
KGHS 241120Z 04007KT 17/15 A2994 RMK A01 T01730152  RH  092%=      5-min Rain = 0
KGHS 241125Z 07007KT 17/15 A2994 RMK A01 T01740153  RH  091%=      5-min Rain = 0
KGHS 241130Z 08008KT 17/15 A2994 RMK A01 T01740153  RH  092%=      5-min Rain = 0
KGHS 241135Z 08005KT 18/15 A2994 RMK A01 T01750154  RH  092%=      5-min Rain = 0
KGHS 241140Z 08005KT 18/15 A2994 RMK A01 T01750154  RH  092%=      5-min Rain = 0
KGHS 241145Z 08007KT 18/15 A2994 RMK A01 T01750154  RH  092%=      5-min Rain = 0
KGHS 241150Z 07005KT 18/16 A2994 RMK A01 T01760156  RH  092%=      5-min Rain = 0
KGHS 241155Z 07006KT 18/16 A2994 RMK A01 T01760156  RH  092%=      5-min Rain = 0
KGHS 241200Z 08005KT 18/16 A2994 RMK A01 T01760157  RH  093%=      5-min Rain = 0
KGHS 241205Z 09006KT 18/16 A2994 RMK A01 T01770158  RH  093%=      5-min Rain = 0
KGHS 241210Z 11006KT 18/16 A2994 RMK A01 T01780160  RH  093%=      5-min Rain = 0
KGHS 241215Z 12005KT 18/16 A2995 RMK A01 T01780161  RH  094%=      5-min Rain = 0
KGHS 241220Z 12005KT 18/16 A2995 RMK A01 T01790161  RH  094%=      5-min Rain = 0
KGHS 241225Z 12004KT 18/16 A2995 RMK A01 T01780161  RH  094%=      5-min Rain = 0
KGHS 241230Z 14003KT 18/16 A2995 RMK A01 T01770160  RH  094%=      5-min Rain = 0
KGHS 241235Z 13003KT 18/16 A2995 RMK A01 T01760160  RH  095%=      5-min Rain = 0
KGHS 241240Z 12003KT 18/16 A2995 RMK A01 T01760160  RH  095%=      5-min Rain = 0
KGHS 241245Z 10002KT 18/16 A2995 RMK A01 T01770161  RH  095%=      5-min Rain = 0
KGHS 241250Z 10003KT 18/16 A2995 RMK A01 T01780163  RH  096%=      5-min Rain = 0
KGHS 241255Z 10004KT 18/17 A2995 RMK A01 T01800165  RH  096%=      5-min Rain = 0
KGHS 241300Z 11005KT 18/17 A2995 RMK A01 T01800166  RH  096%=      5-min Rain = 0
KGHS 241305Z 11006KT 18/17 A2995 RMK A01 T01810167  RH  096%=      5-min Rain = 0
KGHS 241310Z 13006KT 18/17 A2995 RMK A01 T01820167  RH  096%=      5-min Rain = 0
KGHS 241315Z 12007KT 18/17 A2995 RMK A01 T01820168  RH  096%=      5-min Rain = 0
KGHS 241320Z 14004KT 18/17 A2995 RMK A01 T01840170  RH  097%=      5-min Rain = 0
KGHS 241325Z 17003KT 18/17 A2996 RMK A01 T01840170  RH  096%=      5-min Rain = 0
KGHS 241330Z 16005KT 18/17 A2996 RMK A01 T01840170  RH  096%=      5-min Rain = 0
KGHS 241335Z 15004KT 18/17 A2996 RMK A01 T01840170  RH  096%=      5-min Rain = 0
KGHS 241340Z 15004KT 18/17 A2996 RMK A01 T01840169  RH  096%=      5-min Rain = 0
KGHS 241345Z 15004KT 18/17 A2996 RMK A01 T01840170  RH  096%=      5-min Rain = 0
KGHS 241350Z 14004KT 18/17 A2996 RMK A01 T01840170  RH  096%=      5-min Rain = 0
KGHS 241355Z 13004KT 18/17 A2996 RMK A01 T01840171  RH  096%=      5-min Rain = 0
KGHS 241400Z 13005KT 18/17 A2996 RMK A01 T01840171  RH  096%=      5-min Rain = 0
KGHS 241405Z 12005KT 19/17 A2996 RMK A01 T01850172  RH  097%=      5-min Rain = 0
KGHS 241410Z 11006KT 19/17 A2996 RMK A01 T01860173  RH  097%=      5-min Rain = 0
KGHS 241415Z 12005KT 19/18 A2996 RMK A01 T01890177  RH  097%=      5-min Rain = 0
KGHS 241420Z 12004KT 19/18 A2996 RMK A01 T01920179  RH  097%=      5-min Rain = 0
KGHS 241425Z 15004KT 19/18 A2996 RMK A01 T01940181  RH  097%=      5-min Rain = 0
KGHS 241430Z 14003KT 19/18 A2996 RMK A01 T01940180  RH  097%=      5-min Rain = 0
KGHS 241435Z 15003KT 19/18 A2996 RMK A01 T01940180  RH  097%=      5-min Rain = 0
KGHS 241440Z 17003KT 19/18 A2997 RMK A01 T01940180  RH  096%=      5-min Rain = 0
KGHS 241445Z 15003KT 19/18 A2997 RMK A01 T01940180  RH  096%=      5-min Rain = 0
KGHS 241450Z 14004KT 20/18 A2996 RMK A01 T01950181  RH  097%=      5-min Rain = 0
KGHS 241455Z 14004KT 20/18 A2996 RMK A01 T01960182  RH  096%=      5-min Rain = 0
KGHS 241500Z 14005KT 20/18 A2996 RMK A01 T01980183  RH  096%=      5-min Rain = 0
KGHS 241505Z 13006KT 20/18 A2996 RMK A01 T01990184  RH  096%=      5-min Rain = 0
KGHS 241510Z 12005KT 20/19 A2996 RMK A01 T02000185  RH  096%=      5-min Rain = 0
KGHS 241515Z 12005KT 20/19 A2997 RMK A01 T02020187  RH  096%=      5-min Rain = 0
KGHS 241520Z 13006KT 21/19 A2997 RMK A01 T02050188  RH  095%=      5-min Rain = 0
KGHS 241525Z 13005KT 21/19 A2997 RMK A01 T02060189  RH  095%=      5-min Rain = 0
KGHS 241530Z 13006KT 21/19 A2997 RMK A01 T02070189  RH  095%=      5-min Rain = 0
KGHS 241535Z 14006KT 21/19 A2997 RMK A01 T02080190  RH  094%=      5-min Rain = 0
KGHS 241540Z 13006KT 21/19 A2997 RMK A01 T02090189  RH  094%=      5-min Rain = 0
KGHS 241545Z 13006KT 21/19 A2997 RMK A01 T02080189  RH  094%=      5-min Rain = 0
KGHS 241550Z 14006KT 21/19 A2997 RMK A01 T02100191  RH  094%=      5-min Rain = 0
KGHS 241555Z 13007KT 21/19 A2997 RMK A01 T02130193  RH  094%=      5-min Rain = 0
KGHS 241600Z 13007KT 21/19 A2997 RMK A01 T02140192  RH  092%=      5-min Rain = 0
KGHS 241605Z 13006KT 22/19 A2997 RMK A01 T02150193  RH  092%=      5-min Rain = 0
KGHS 241610Z 13007KT 22/19 A2997 RMK A01 T02170194  RH  092%=      5-min Rain = 0
KGHS 241615Z 13007KT 22/20 A2997 RMK A01 T02210198  RH  092%=      5-min Rain = 0
KGHS 241620Z 13008KT 23/20 A2997 RMK A01 T02260199  RH  090%=      5-min Rain = 0
KGHS 241625Z 13008KT 23/20 A2997 RMK A01 T02260198  RH  089%=      5-min Rain = 0
KGHS 241630Z 13008KT 23/20 A2996 RMK A01 T02290200  RH  089%=      5-min Rain = 0
KGHS 241635Z 13009KT 23/20 A2996 RMK A01 T02310199  RH  087%=      5-min Rain = 0
KGHS 241640Z 14010KT 23/20 A2996 RMK A01 T02340202  RH  087%=      5-min Rain = 0
KGHS 241645Z 14009KT 24/20 A2997 RMK A01 T02380204  RH  086%=      5-min Rain = 0
KGHS 241650Z 13008KT 24/20 A2997 RMK A01 T02390203  RH  085%=      5-min Rain = 0
KGHS 241655Z 13008KT 24/20 A2997 RMK A01 T02400204  RH  085%=      5-min Rain = 0
KGHS 241700Z 12007KT 24/20 A2996 RMK A01 T02440204  RH  083%=      5-min Rain = 0
KGHS 241705Z 15008G14KT 24/21 A2997 RMK A01 T02440206  RH  084%=      5-min Rain = 0
KGHS 241710Z 15010KT 25/20 A2996 RMK A01 T02470203  RH  081%=      5-min Rain = 0
KGHS 241715Z 15010G16KT 25/20 A2996 RMK A01 T02490204  RH  081%=      5-min Rain = 0
KGHS 241720Z 15010KT 25/20 A2996 RMK A01 T02470204  RH  081%=      5-min Rain = 0
KGHS 241725Z 15009KT 25/20 A2996 RMK A01 T02470203  RH  082%=      5-min Rain = 0
KGHS 241730Z 14011KT 25/20 A2996 RMK A01 T02460203  RH  082%=      5-min Rain = 0
KGHS 241735Z 14012KT 25/20 A2996 RMK A01 T02450203  RH  082%=      5-min Rain = 0
KGHS 241740Z 15012KT 25/21 A2995 RMK A01 T02490207  RH  082%=      5-min Rain = 0
KGHS 241745Z 15013G18KT 26/21 A2995 RMK A01 T02550205  RH  079%=      5-min Rain = 0
KGHS 241750Z 14013KT 26/21 A2995 RMK A01 T02550206  RH  079%=      5-min Rain = 0
KGHS 241755Z 15013G18KT 26/21 A2995 RMK A01 T02560207  RH  079%=      5-min Rain = 0
KGHS 241800Z 14015G20KT 26/21 A2994 RMK A01 T02590206  RH  077%=      5-min Rain = 0
KGHS 241805Z 15017KT 26/21 A2994 RMK A01 T02620207  RH  076%=      5-min Rain = 0
KGHS 241810Z 15016G21KT 26/21 A2994 RMK A01 T02630206  RH  075%=      5-min Rain = 0
KGHS 241815Z 15016G21KT 26/21 A2993 RMK A01 T02600205  RH  076%=      5-min Rain = 0
KGHS 241820Z 15016G21KT 26/20 A2993 RMK A01 T02550203  RH  077%=      5-min Rain = 0
KGHS 241825Z 15014KT 25/20 A2992 RMK A01 T02540203  RH  078%=      5-min Rain = 0
KGHS 241830Z 16016G23KT 26/20 A2991 RMK A01 T02550204  RH  077%=      5-min Rain = 0
KGHS 241835Z 16019G24KT 26/21 A2991 RMK A01 T02610205  RH  076%=      5-min Rain = 0
KGHS 241840Z 16018G29KT 27/20 A2991 RMK A01 T02650204  RH  074%=      5-min Rain = 0
KGHS 241845Z 16019G27KT 27/20 A2991 RMK A01 T02670203  RH  072%=      5-min Rain = 0
KGHS 241850Z 16018KT 27/20 A2991 RMK A01 T02650202  RH  073%=      5-min Rain = 0
KGHS 241855Z 17018G24KT 26/20 A2991 RMK A01 T02640202  RH  073%=      5-min Rain = 0
KGHS 241900Z 16017G22KT 26/20 A2992 RMK A01 T02620201  RH  074%=      5-min Rain = 0
KGHS 241905Z 16018G23KT 26/20 A2991 RMK A01 T02610199  RH  073%=      5-min Rain = 0
KGHS 241910Z 15016G21KT 26/20 A2991 RMK A01 T02600200  RH  074%=      5-min Rain = 0
KGHS 241915Z 16021G27KT 26/20 A2991 RMK A01 T02630200  RH  072%=      5-min Rain = 0
KGHS 241920Z 17018G24KT 26/20 A2991 RMK A01 T02640200  RH  072%=      5-min Rain = 0
KGHS 241925Z 17015G22KT 26/20 A2991 RMK A01 T02630200  RH  073%=      5-min Rain = 0
KGHS 241930Z 16017G23KT 26/20 A2991 RMK A01 T02640200  RH  072%=      5-min Rain = 0
KGHS 241935Z 16017G22KT 27/20 A299 RMK A01 T02680202  RH  071%=      5-min Rain = 0
KGHS 241940Z 15019G25KT 27/20 A299 RMK A01 T02690201  RH  070%=      5-min Rain = 0
KGHS 241945Z 16018G26KT 27/20 A2989 RMK A01 T02660203  RH  073%=      5-min Rain = 0
KGHS 241950Z 15020G26KT 27/20 A2988 RMK A01 T02700204  RH  072%=      5-min Rain = 0
KGHS 241955Z 15023G28KT 27/20 A2988 RMK A01 T02680203  RH  071%=      5-min Rain = 0
KGHS 242000Z 16022G29KT 27/20 A2988 RMK A01 T02660202  RH  072%=      5-min Rain = 0
KGHS 242005Z 15019G29KT 27/20 A2988 RMK A01 T02690204  RH  072%=      5-min Rain = 0
KGHS 242010Z 17024G32KT 27/20 A2988 RMK A01 T02710202  RH  070%=      5-min Rain = 0
KGHS 242015Z 16022G29KT 27/20 A2988 RMK A01 T02730202  RH  069%=      5-min Rain = 0
KGHS 242020Z 17024G33KT 27/20 A2987 RMK A01 T02710200  RH  069%=      5-min Rain = 0
KGHS 242025Z 16022G28KT 27/20 A2987 RMK A01 T02690202  RH  071%=      5-min Rain = 0
KGHS 242030Z 16022G30KT 27/20 A2987 RMK A01 T02720204  RH  070%=      5-min Rain = 0
KGHS 242035Z 16019G26KT 27/20 A2987 RMK A01 T02730204  RH  070%=      5-min Rain = 0
KGHS 242040Z 16020G30KT 28/20 A2987 RMK A01 T02750201  RH  068%=      5-min Rain = 0
KGHS 242045Z 17023G29KT 27/20 A2987 RMK A01 T02720198  RH  068%=      5-min Rain = 0
KGHS 242050Z 17023G31KT 27/20 A2987 RMK A01 T02700199  RH  069%=      5-min Rain = 0
KGHS 242055Z 16024G32KT 27/20 A2986 RMK A01 T02710199  RH  068%=      5-min Rain = 0
KGHS 242100Z 16023G29KT 27/20 A2986 RMK A01 T02740199  RH  067%=      5-min Rain = 0
KGHS 242105Z 17024G33KT 28/20 A2986 RMK A01 T02750199  RH  067%=      5-min Rain = 0
KGHS 242110Z 17028G36KT 27/20 A2986 RMK A01 T02720198  RH  067%=      5-min Rain = 0
KGHS 242115Z 18025G33KT 27/20 A2987 RMK A01 T02710197  RH  068%=      5-min Rain = 0
KGHS 242120Z 17024G33KT 27/20 A2987 RMK A01 T02710197  RH  068%=      5-min Rain = 0
KGHS 242125Z 16024G30KT 27/20 A2987 RMK A01 T02680195  RH  068%=      5-min Rain = 0
KGHS 242130Z 16023G33KT 27/20 A2987 RMK A01 T02710197  RH  068%=      5-min Rain = 0
KGHS 242135Z 16025G31KT 27/20 A2986 RMK A01 T02720196  RH  067%=      5-min Rain = 0
KGHS 242140Z 17023G29KT 28/20 A2986 RMK A01 T02750197  RH  066%=      5-min Rain = 0
KGHS 242145Z 17026G34KT 27/19 A2985 RMK A01 T02740194  RH  065%=      5-min Rain = 0
KGHS 242150Z 17026G34KT 27/19 A2985 RMK A01 T02710193  RH  066%=      5-min Rain = 0
KGHS 242155Z 16024G31KT 27/19 A2985 RMK A01 T02700193  RH  066%=      5-min Rain = 0
KGHS 242200Z 16028G34KT 27/19 A2985 RMK A01 T02690193  RH  067%=      5-min Rain = 0
KGHS 242205Z 16023G31KT 27/19 A2986 RMK A01 T02710194  RH  067%=      5-min Rain = 0
KGHS 242210Z 17024G31KT 27/19 A2986 RMK A01 T02700192  RH  066%=      5-min Rain = 0
KGHS 242215Z 16024G30KT 27/19 A2985 RMK A01 T02690192  RH  066%=      5-min Rain = 0
KGHS 242220Z 17022G30KT 27/19 A2986 RMK A01 T02680192  RH  067%=      5-min Rain = 0
KGHS 242225Z 16023G31KT 27/19 A2985 RMK A01 T02650191  RH  067%=      5-min Rain = 0
KGHS 242230Z 16020G28KT 27/19 A2986 RMK A01 T02650192  RH  068%=      5-min Rain = 0
KGHS 242235Z 16019G29KT 27/19 A2986 RMK A01 T02660193  RH  068%=      5-min Rain = 0
KGHS 242240Z 16026G34KT 27/19 A2985 RMK A01 T02660191  RH  067%=      5-min Rain = 0
KGHS 242245Z 16020KT 27/19 A2985 RMK A01 T02650192  RH  068%=      5-min Rain = 0
KGHS 242250Z 16019G25KT 26/19 A2985 RMK A01 T02640192  RH  069%=      5-min Rain = 0
KGHS 242255Z 17020G27KT 26/19 A2986 RMK A01 T02640192  RH  068%=      5-min Rain = 0
KGHS 242300Z 15019G26KT 26/19 A2986 RMK A01 T02630194  RH  069%=      5-min Rain = 0
KGHS 242305Z 16022G29KT 26/19 A2986 RMK A01 T02640193  RH  069%=      5-min Rain = 0
KGHS 242310Z 16023G29KT 26/19 A2986 RMK A01 T02620191  RH  069%=      5-min Rain = 0
KGHS 242315Z 16020G31KT 26/19 A2986 RMK A01 T02610194  RH  070%=      5-min Rain = 0
KGHS 242320Z 16025G33KT 26/19 A2986 RMK A01 T02590191  RH  070%=      5-min Rain = 0
KGHS 242325Z 15023G30KT 26/19 A2986 RMK A01 T02570191  RH  071%=      5-min Rain = 0
KGHS 242330Z 16028G35KT 26/19 A2986 RMK A01 T02580190  RH  070%=      5-min Rain = 0
KGHS 242335Z 16022G31KT 26/19 A2987 RMK A01 T02550189  RH  071%=      5-min Rain = 0
KGHS 242340Z 16023G31KT 25/19 A2986 RMK A01 T02540188  RH  071%=      5-min Rain = 0
KGHS 242345Z 16023G31KT 25/19 A2986 RMK A01 T02530187  RH  071%=      5-min Rain = 0
KGHS 242350Z 16025G32KT 25/19 A2986 RMK A01 T02530187  RH  070%=      5-min Rain = 0
KGHS 242355Z 17021G29KT 26/19 A2986 RMK A01 T02550187  RH  070%=      5-min Rain = 0
KGHS 250000Z 17027G35KT 25/18 A2985 RMK A01 T02540184  RH  069%=      5-min Rain = 0
KGHS 250005Z 17024G33KT 25/18 A2985 RMK A01 T02530184  RH  069%=      5-min Rain = 0
KGHS 250010Z 16020G32KT 25/19 A2986 RMK A01 T02530186  RH  070%=      5-min Rain = 0
KGHS 250015Z 17021G28KT 25/19 A2986 RMK A01 T02540186  RH  070%=      5-min Rain = 0
KGHS 250020Z 17021G31KT 25/19 A2986 RMK A01 T02530185  RH  069%=      5-min Rain = 0
KGHS 250025Z 16020G28KT 25/19 A2986 RMK A01 T02530186  RH  070%=      5-min Rain = 0
KGHS 250030Z 16020G31KT 25/19 A2986 RMK A01 T02520185  RH  070%=      5-min Rain = 0
KGHS 250035Z 16022G29KT 25/18 A2986 RMK A01 T02510184  RH  070%=      5-min Rain = 0
KGHS 250040Z 16022G27KT 25/18 A2986 RMK A01 T02510184  RH  070%=      5-min Rain = 0
KGHS 250045Z 16019G25KT 25/18 A2986 RMK A01 T02510184  RH  070%=      5-min Rain = 0
KGHS 250050Z 16019G24KT 25/19 A2987 RMK A01 T02500185  RH  071%=      5-min Rain = 0
KGHS 250055Z 16021G34KT 25/18 A2987 RMK A01 T02500183  RH  070%=      5-min Rain = 0
KGHS 250100Z 16020G25KT 25/18 A2987 RMK A01 T02490183  RH  070%=      5-min Rain = 0
KGHS 250105Z 16021G27KT 25/18 A2987 RMK A01 T02490181  RH  070%=      5-min Rain = 0
KGHS 250110Z 16019G26KT 25/18 A2987 RMK A01 T02480180  RH  070%=      5-min Rain = 0
KGHS 250115Z 15018G27KT 25/18 A2987 RMK A01 T02480179  RH  069%=      5-min Rain = 0
KGHS 250120Z 15016G22KT 25/18 A2988 RMK A01 T02460180  RH  070%=      5-min Rain = 0
KGHS 250125Z 15015G20KT 25/18 A2987 RMK A01 T02450179  RH  070%=      5-min Rain = 0
KGHS 250130Z 15015G21KT 24/18 A2987 RMK A01 T02440179  RH  071%=      5-min Rain = 0
KGHS 250135Z 14012G17KT 24/18 A2988 RMK A01 T02430179  RH  071%=      5-min Rain = 0
KGHS 250140Z 14011KT 24/18 A2988 RMK A01 T02410179  RH  072%=      5-min Rain = 0
KGHS 250145Z 14013KT 24/18 A2988 RMK A01 T02390179  RH  073%=      5-min Rain = 0
KGHS 250150Z 15013KT 24/18 A2988 RMK A01 T02380178  RH  073%=      5-min Rain = 0
KGHS 250155Z 14010KT 24/18 A2988 RMK A01 T02370178  RH  073%=      5-min Rain = 0
KGHS 250200Z 13009KT 24/18 A2989 RMK A01 T02350179  RH  074%=      5-min Rain = 0
KGHS 250205Z 12008KT 23/18 A2989 RMK A01 T02340180  RH  075%=      5-min Rain = 0
KGHS 250210Z 12009KT 23/18 A2989 RMK A01 T02340181  RH  076%=      5-min Rain = 0
KGHS 250215Z 12007KT 23/18 A2989 RMK A01 T02330181  RH  077%=      5-min Rain = 0
KGHS 250220Z 13008KT 23/18 A299 RMK A01 T02320182  RH  077%=      5-min Rain = 0
KGHS 250225Z 12008KT 23/18 A299 RMK A01 T02310182  RH  078%=      5-min Rain = 0
KGHS 250230Z 12007KT 23/18 A299 RMK A01 T02310181  RH  078%=      5-min Rain = 0
KGHS 250235Z 11007KT 23/18 A299 RMK A01 T02310181  RH  077%=      5-min Rain = 0
KGHS 250240Z 12005KT 23/18 A2991 RMK A01 T02300181  RH  078%=      5-min Rain = 0
KGHS 250245Z 13005KT 23/18 A2991 RMK A01 T02280181  RH  079%=      5-min Rain = 0
KGHS 250250Z 13006KT 23/18 A2991 RMK A01 T02270180  RH  079%=      5-min Rain = 0
KGHS 250255Z 14006KT 23/18 A2992 RMK A01 T02260180  RH  079%=      5-min Rain = 0
KGHS 250300Z 15006KT 23/18 A2992 RMK A01 T02250180  RH  080%=      5-min Rain = 0
KGHS 250305Z 16005KT 22/18 A2992 RMK A01 T02240180  RH  080%=      5-min Rain = 0
KGHS 250310Z 15006KT 22/18 A2993 RMK A01 T02230180  RH  081%=      5-min Rain = 0
KGHS 250315Z 15006KT 22/18 A2993 RMK A01 T02210181  RH  082%=      5-min Rain = 0
KGHS 250320Z 15007KT 22/18 A2994 RMK A01 T02200181  RH  083%=      5-min Rain = 0
KGHS 250325Z 14007KT 22/18 A2994 RMK A01 T02190180  RH  083%=      5-min Rain = 0
KGHS 250330Z 13007KT 22/18 A2994 RMK A01 T02180180  RH  083%=      5-min Rain = 0
KGHS 250335Z 13007KT 22/18 A2995 RMK A01 T02170180  RH  084%=      5-min Rain = 0
KGHS 250340Z 13007KT 22/18 A2995 RMK A01 T02170180  RH  084%=      5-min Rain = 0
KGHS 250345Z 13007KT 22/18 A2996 RMK A01 T02160180  RH  084%=      5-min Rain = 0
KGHS 250350Z 12007KT 22/18 A2996 RMK A01 T02160180  RH  084%=      5-min Rain = 0
KGHS 250355Z 11006KT 22/18 A2996 RMK A01 T02160179  RH  084%=      5-min Rain = 0
KGHS 250400Z 09005KT 22/18 A2996 RMK A01 T02150179  RH  084%=      5-min Rain = 0
KGHS 250405Z 08005KT 21/18 A2997 RMK A01 T02140179  RH  084%=      5-min Rain = 0
KGHS 250410Z 07006KT 21/18 A2997 RMK A01 T02140179  RH  085%=      5-min Rain = 0
KGHS 250415Z 05007KT 21/18 A2997 RMK A01 T02120178  RH  085%=      5-min Rain = 0
KGHS 250420Z 06009KT 21/18 A2997 RMK A01 T02100178  RH  086%=      5-min Rain = 0
KGHS 250425Z 06008KT 21/18 A2997 RMK A01 T02100178  RH  086%=      5-min Rain = 0
KGHS 250430Z 06009KT 21/18 A2997 RMK A01 T02110178  RH  086%=      5-min Rain = 0
KGHS 250435Z 05008KT 21/18 A2997 RMK A01 T02110178  RH  086%=      5-min Rain = 0
KGHS 250440Z 05008KT 21/18 A2996 RMK A01 T02110178  RH  086%=      5-min Rain = 0
KGHS 250445Z 05008KT 21/18 A2997 RMK A01 T02110178  RH  086%=      5-min Rain = 0
KGHS 250450Z 05007KT 21/18 A2997 RMK A01 T02100178  RH  087%=      5-min Rain = 0
KGHS 250455Z 06006KT 21/18 A2997 RMK A01 T02100178  RH  087%=      5-min Rain = 0

Page generated in 0.0327 seconds.